Skip Navigation Links Skip Navigation Links

Current Weather

Chicago Midway, Chicago

For information only: do not use for flight planning or navigation.
Latest weather
Observation time Saturday, August 24, 2019 11:53 PM CDT
Local time Sunday, August 25, 2019 12:11 AM CDT
Flight conditions Visual Meteorological Conditions
Winds
Wind direction Southeast (130°)
Wind speed 5 mph
Visibility 10 mi.
Sky condition
Ceiling 25,000 ft. broken clouds
Cloud layer broken clouds 25,000 ft.
Temperature 66°F
Dewpoint 54°F
Altimeter 30.19 in.Hg
Derived measurements
Relative humidity 64%
Density altitude 980 ft.
Remarks
Corrected report.
Sea-level-pressure sensor not operating.
METAR KMDW 250453Z COR 13004KT 10SM BKN250 19/12 A3019 RMK SLPNO

Settings

Location code

InnerDrive.Weather 4.0.6770.0 Release CLR 4.0.30319.42000
Copyright ©2018 Inner Drive Technology. All rights reserved. Portions Copyright ©1986-2018 David Braverman.

Find weather

Site navigation


Skip Navigation Links

Place info

Page info

PayPal - The safer, easier way to pay online!

Return home.

Copyright ©2019 Inner Drive Technology. Purveyors of fine, hand-crafted computer software. Page printed 2019-08-25T05:11:03 UTC.